createdAt,value
2022-11-10T00:00:42.645Z,5.93
2022-11-10T00:03:11.960Z,6.60
2022-11-10T00:05:40.640Z,6.57
2022-11-10T00:08:13.222Z,6.38
2022-11-10T00:10:56.404Z,6.05
2022-11-10T00:13:28.740Z,5.72
2022-11-10T00:16:16.306Z,6.30
2022-11-10T00:18:44.601Z,6.80
2022-11-10T00:21:13.933Z,5.32
2022-11-10T00:23:43.891Z,5.68
2022-11-10T00:26:14.523Z,4.85
2022-11-10T00:28:43.418Z,5.68
2022-11-10T00:31:12.244Z,5.28
2022-11-10T00:33:43.594Z,4.85
2022-11-10T00:36:14.206Z,5.30
2022-11-10T00:38:43.834Z,5.30
2022-11-10T00:41:12.198Z,5.22
2022-11-10T00:43:40.425Z,5.10
2022-11-10T00:46:08.658Z,5.03
2022-11-10T00:48:37.197Z,6.30
2022-11-10T00:51:05.581Z,5.20
2022-11-10T00:53:33.892Z,5.43
2022-11-10T00:56:03.603Z,4.78
2022-11-10T00:58:31.824Z,5.35
2022-11-10T01:01:03.678Z,5.40
2022-11-10T01:03:35.371Z,4.68
2022-11-10T01:06:06.486Z,4.78
2022-11-10T01:08:34.811Z,4.82
2022-11-10T01:11:05.677Z,5.70
2022-11-10T01:13:34.429Z,6.95
2022-11-10T01:16:06.148Z,4.50
2022-11-10T01:18:34.816Z,6.22
2022-11-10T01:21:03.486Z,6.10
2022-11-10T01:23:31.854Z,5.93
2022-11-10T01:26:00.407Z,5.10
2022-11-10T01:28:30.667Z,4.82
2022-11-10T01:30:59.574Z,4.82
2022-11-10T01:33:31.199Z,5.13
2022-11-10T01:35:59.505Z,6.35
2022-11-10T01:38:28.626Z,5.28
2022-11-10T01:40:57.924Z,5.22
2022-11-10T01:43:27.032Z,5.55
2022-11-10T01:46:00.529Z,6.15
2022-11-10T01:48:33.898Z,5.53
2022-11-10T01:51:07.211Z,4.90
2022-11-10T01:53:39.889Z,4.00
2022-11-10T01:56:10.956Z,5.28
2022-11-10T01:58:42.830Z,4.50
2022-11-10T02:01:15.522Z,5.07
2022-11-10T02:03:49.160Z,3.70
2022-11-10T02:06:18.713Z,4.97
2022-11-10T02:08:47.469Z,4.10
2022-11-10T02:11:15.989Z,4.25
2022-11-10T02:13:44.862Z,4.30
2022-11-10T02:16:14.773Z,4.15
2022-11-10T02:18:43.198Z,5.07
2022-11-10T02:21:12.860Z,5.40
2022-11-10T02:23:50.069Z,5.05
2022-11-10T02:26:21.647Z,4.93
2022-11-10T02:28:50.133Z,5.18
2022-11-10T02:31:18.438Z,4.60
2022-11-10T02:33:46.748Z,5.63
2022-11-10T02:36:16.435Z,4.00
2022-11-10T02:38:44.682Z,4.25
2022-11-10T02:41:13.160Z,4.90
2022-11-10T02:43:41.609Z,4.88
2022-11-10T02:46:09.893Z,4.90
2022-11-10T02:48:38.239Z,4.15
2022-11-10T02:51:06.578Z,4.90
2022-11-10T02:53:36.229Z,4.40
2022-11-10T02:56:04.577Z,3.90
2022-11-10T02:58:32.915Z,4.45
2022-11-10T03:01:01.284Z,4.35
2022-11-10T03:03:29.783Z,4.68
2022-11-10T03:05:58.126Z,4.60
2022-11-10T03:08:28.135Z,3.83
2022-11-10T03:10:58.461Z,4.78
2022-11-10T03:13:35.618Z,4.20
2022-11-10T03:16:13.527Z,3.90
2022-11-10T03:18:41.795Z,3.38
2022-11-10T03:21:10.194Z,5.32
2022-11-10T03:23:38.833Z,4.85
2022-11-10T03:26:08.870Z,3.65
2022-11-10T03:28:37.204Z,5.35
2022-11-10T03:31:05.588Z,4.40
2022-11-10T03:33:34.086Z,3.78
2022-11-10T03:36:02.352Z,4.75
2022-11-10T03:38:30.647Z,5.15
2022-11-10T03:43:51.100Z,4.47
2022-11-10T03:46:19.797Z,3.97
2022-11-10T03:48:53.214Z,4.10
2022-11-10T03:51:22.264Z,5.22
2022-11-10T03:53:50.869Z,4.95
2022-11-10T03:56:21.711Z,4.40
2022-11-10T03:58:51.422Z,3.58
2022-11-10T04:01:19.811Z,4.65
2022-11-10T04:03:51.489Z,5.15
2022-11-10T04:06:42.504Z,4.25
2022-11-10T04:09:11.141Z,5.35
2022-11-10T04:11:56.790Z,4.32
2022-11-10T04:14:44.013Z,5.60
2022-11-10T04:17:12.271Z,4.40
2022-11-10T04:19:40.595Z,5.75
2022-11-10T04:22:28.875Z,5.20
2022-11-10T04:24:59.448Z,3.80
2022-11-10T04:27:27.793Z,4.88
2022-11-10T04:29:57.396Z,5.43
2022-11-10T04:32:26.147Z,4.20
2022-11-10T04:34:54.348Z,4.55
2022-11-10T04:37:22.719Z,3.17
2022-11-10T04:39:50.967Z,4.00
2022-11-10T04:42:19.302Z,4.00
2022-11-10T04:44:47.576Z,3.83
2022-11-10T04:47:17.233Z,3.80
2022-11-10T04:49:45.567Z,3.60
2022-11-10T04:52:16.330Z,3.53
2022-11-10T04:54:44.598Z,4.18
2022-11-10T04:57:13.124Z,3.83
2022-11-10T04:59:41.436Z,3.55
2022-11-10T05:02:09.701Z,3.78
2022-11-10T05:04:39.385Z,4.25
2022-11-10T05:07:07.676Z,3.67
2022-11-10T05:09:38.223Z,3.50
2022-11-10T05:12:06.828Z,3.65
2022-11-10T05:14:37.549Z,3.63
2022-11-10T05:17:05.884Z,4.03
2022-11-10T05:19:34.307Z,3.55
2022-11-10T05:22:07.033Z,3.13
2022-11-10T05:24:37.786Z,3.15
2022-11-10T05:27:06.040Z,3.25
2022-11-10T05:29:34.362Z,3.83
2022-11-10T05:32:02.658Z,3.70
2022-11-10T05:34:31.015Z,2.38
2022-11-10T05:36:59.396Z,3.10
2022-11-10T05:39:29.026Z,3.30
2022-11-10T05:41:57.365Z,3.63
2022-11-10T05:44:26.000Z,3.03
2022-11-10T05:46:56.610Z,3.85
2022-11-10T05:49:28.518Z,3.78
2022-11-10T05:51:56.787Z,3.50
2022-11-10T05:54:25.106Z,3.50
2022-11-10T05:56:54.894Z,3.53
2022-11-10T05:59:23.165Z,3.83
2022-11-10T06:01:51.666Z,4.45
2022-11-10T06:04:19.892Z,3.47
2022-11-10T06:06:49.812Z,4.30
2022-11-10T06:09:18.148Z,4.30
2022-11-10T06:11:46.430Z,4.13
2022-11-10T06:14:16.130Z,3.70
2022-11-10T06:16:44.341Z,4.90
2022-11-10T06:19:12.713Z,4.22
2022-11-10T06:21:40.967Z,3.63
2022-11-10T06:24:10.945Z,3.50
2022-11-10T06:26:39.311Z,3.97
2022-11-10T06:29:07.629Z,3.70
2022-11-10T06:31:37.685Z,4.07
2022-11-10T06:34:06.033Z,3.35
2022-11-10T06:36:34.330Z,4.22
2022-11-10T06:39:02.703Z,3.35
2022-11-10T06:41:30.949Z,4.03
2022-11-10T06:44:02.091Z,3.75
2022-11-10T06:46:30.416Z,3.67
2022-11-10T06:49:01.362Z,3.38
2022-11-10T06:51:29.590Z,4.40
2022-11-10T06:53:57.859Z,3.65
2022-11-10T06:56:26.295Z,4.75
2022-11-10T06:58:54.547Z,4.45
2022-11-10T07:01:26.721Z,4.07
2022-11-10T07:04:18.189Z,5.55
2022-11-10T07:06:47.062Z,4.70
2022-11-10T07:09:15.418Z,4.47
2022-11-10T07:11:43.748Z,4.47
2022-11-10T07:14:12.280Z,4.32
2022-11-10T07:16:40.643Z,5.85
2022-11-10T07:19:08.974Z,7.25
2022-11-10T07:21:37.230Z,5.35
2022-11-10T07:24:08.103Z,5.72
2022-11-10T07:26:36.758Z,5.07
2022-11-10T07:29:05.050Z,4.80
2022-11-10T07:31:33.331Z,5.10
2022-11-10T07:34:01.687Z,6.15
2022-11-10T07:36:30.029Z,4.93
2022-11-10T07:38:58.253Z,4.95
2022-11-10T07:41:27.854Z,4.47
2022-11-10T07:43:56.145Z,5.68
2022-11-10T07:46:24.666Z,6.60
2022-11-10T07:48:53.010Z,5.50
2022-11-10T07:51:21.400Z,4.65
2022-11-10T07:53:49.714Z,5.05
2022-11-10T07:56:17.961Z,3.70
2022-11-10T07:58:49.605Z,2.95
2022-11-10T08:01:17.890Z,6.00
2022-11-10T08:03:46.236Z,4.15
2022-11-10T08:06:14.534Z,3.75
2022-11-10T08:08:42.982Z,4.50
2022-11-10T08:11:11.317Z,4.47
2022-11-10T08:13:39.942Z,4.88
2022-11-10T08:16:09.885Z,4.18
2022-11-10T08:18:38.104Z,4.13
2022-11-10T08:21:06.716Z,2.47
2022-11-10T08:23:35.285Z,3.90
2022-11-10T08:26:03.608Z,4.95
2022-11-10T08:28:31.875Z,4.28
2022-11-10T08:31:05.152Z,3.78
2022-11-10T08:33:35.374Z,5.90
2022-11-10T08:36:03.720Z,4.40
2022-11-10T08:38:35.203Z,5.53
2022-11-10T08:41:03.489Z,3.38
2022-11-10T08:43:31.785Z,3.83
2022-11-10T08:46:01.683Z,4.53
2022-11-10T08:48:30.251Z,3.78
2022-11-10T08:51:01.262Z,3.70
2022-11-10T08:53:29.702Z,3.60
2022-11-10T08:56:00.188Z,2.70
2022-11-10T08:58:28.699Z,3.60
2022-11-10T09:00:58.318Z,3.35
2022-11-10T09:03:27.168Z,2.10
2022-11-10T09:05:58.508Z,3.47
2022-11-10T09:08:28.457Z,2.22
2022-11-10T09:10:57.065Z,2.42
2022-11-10T09:13:29.984Z,3.80
2022-11-10T09:16:02.604Z,2.45
2022-11-10T09:18:31.180Z,1.90
2022-11-10T09:20:59.825Z,2.08
2022-11-10T09:23:29.587Z,3.03
2022-11-10T09:25:58.224Z,1.45
2022-11-10T09:28:26.760Z,1.17
2022-11-10T09:30:55.107Z,2.33
2022-11-10T09:33:23.774Z,1.67
2022-11-10T09:35:52.557Z,2.03
2022-11-10T09:38:21.126Z,1.67
2022-11-10T09:41:03.021Z,1.77
2022-11-10T09:43:38.622Z,1.30
2022-11-10T09:46:15.250Z,1.30
2022-11-10T09:48:48.671Z,1.52
2022-11-10T09:51:22.016Z,1.20
2022-11-10T09:53:52.855Z,1.10
2022-11-10T09:56:28.696Z,1.65
2022-11-10T09:58:56.995Z,1.00
2022-11-10T10:01:36.236Z,1.65
2022-11-10T10:04:15.975Z,1.50
2022-11-10T10:07:10.211Z,1.70
2022-11-10T10:09:46.523Z,1.00
2022-11-10T10:12:41.447Z,1.20
2022-11-10T10:15:25.858Z,0.98
2022-11-10T10:18:03.980Z,1.48
2022-11-10T10:20:46.972Z,1.08
2022-11-10T10:23:40.670Z,1.15
2022-11-10T10:26:17.135Z,1.02
2022-11-10T10:28:48.507Z,1.08
2022-11-10T10:31:20.346Z,1.10
2022-11-10T10:33:49.247Z,2.63
2022-11-10T10:36:21.146Z,1.65
2022-11-10T10:38:52.988Z,2.35
2022-11-10T10:41:26.144Z,6.13
2022-11-10T10:43:58.219Z,1.92
2022-11-10T10:46:32.880Z,0.75
2022-11-10T10:49:31.982Z,1.98
2022-11-10T10:52:08.170Z,1.70
2022-11-10T10:54:40.340Z,0.80
2022-11-10T10:57:25.656Z,1.10
2022-11-10T11:00:16.548Z,1.40
2022-11-10T11:02:44.916Z,1.00
2022-11-10T11:05:16.214Z,0.90
2022-11-10T11:07:56.693Z,1.42
2022-11-10T11:10:26.957Z,0.75
2022-11-10T11:12:55.686Z,1.25
2022-11-10T11:15:28.488Z,1.17
2022-11-10T11:17:59.362Z,0.90
2022-11-10T11:20:37.918Z,1.25
2022-11-10T11:23:19.553Z,1.27
2022-11-10T11:25:51.140Z,1.08
2022-11-10T11:28:29.828Z,1.00
2022-11-10T11:31:08.202Z,1.23
2022-11-10T11:33:42.448Z,0.70
2022-11-10T11:36:22.238Z,0.68
2022-11-10T11:38:57.255Z,1.05
2022-11-10T11:41:35.496Z,0.80
2022-11-10T11:44:22.376Z,1.00
2022-11-10T11:47:02.252Z,1.13
2022-11-10T11:49:51.191Z,0.73
2022-11-10T11:52:29.613Z,0.75
2022-11-10T11:55:13.443Z,1.15
2022-11-10T11:57:55.855Z,1.27
2022-11-10T12:00:24.722Z,1.98
2022-11-10T12:03:17.899Z,0.80
2022-11-10T12:05:58.297Z,1.10
2022-11-10T12:08:39.046Z,0.95
2022-11-10T12:11:17.554Z,1.10
2022-11-10T12:13:57.801Z,0.90
2022-11-10T12:16:29.764Z,0.80
2022-11-10T12:19:08.399Z,0.60
2022-11-10T12:21:45.254Z,0.88
2022-11-10T12:24:29.735Z,0.80
2022-11-10T12:27:01.510Z,1.52
2022-11-10T12:29:35.539Z,0.80
2022-11-10T12:32:10.861Z,1.10
2022-11-10T12:34:43.977Z,1.33
2022-11-10T12:37:22.269Z,0.77
2022-11-10T12:40:00.831Z,1.00
2022-11-10T12:42:33.223Z,1.15
2022-11-10T12:45:03.670Z,0.85
2022-11-10T12:47:39.693Z,1.17
2022-11-10T12:50:41.655Z,0.93
2022-11-10T12:53:19.662Z,1.13
2022-11-10T12:55:55.691Z,2.17
2022-11-10T12:58:24.501Z,1.15
2022-11-10T13:00:58.866Z,0.90
2022-11-10T13:03:30.098Z,0.90
2022-11-10T13:06:01.839Z,0.85
2022-11-10T13:08:34.865Z,0.60
2022-11-10T13:11:20.923Z,0.73
2022-11-10T13:13:59.223Z,0.93
2022-11-10T13:16:52.076Z,0.60
2022-11-10T13:19:49.725Z,0.77
2022-11-10T13:22:37.595Z,0.98
2022-11-10T13:25:43.307Z,0.63
2022-11-10T13:28:12.692Z,0.32
2022-11-10T13:30:43.614Z,0.70
2022-11-10T13:33:38.350Z,0.95
2022-11-10T13:36:09.029Z,0.65
2022-11-10T13:38:43.171Z,0.68
2022-11-10T13:41:24.759Z,0.73
2022-11-10T13:43:56.915Z,0.82
2022-11-10T13:46:36.357Z,0.55
2022-11-10T13:49:30.153Z,0.60
2022-11-10T13:52:09.408Z,0.68
2022-11-10T13:55:10.467Z,0.52
2022-11-10T13:58:01.183Z,0.93
2022-11-10T14:00:32.024Z,0.50
2022-11-10T14:03:02.230Z,1.25
2022-11-10T14:06:10.236Z,0.45
2022-11-10T14:08:51.575Z,0.60
2022-11-10T14:11:26.566Z,0.40
2022-11-10T14:14:00.209Z,0.60
2022-11-10T14:16:32.612Z,0.63
2022-11-10T14:19:05.491Z,0.55
2022-11-10T14:21:45.265Z,0.50
2022-11-10T14:24:22.945Z,0.88
2022-11-10T14:26:55.194Z,1.20
2022-11-10T14:29:35.889Z,0.75
2022-11-10T14:32:07.090Z,0.47
2022-11-10T14:34:47.562Z,0.60
2022-11-10T14:37:22.830Z,0.40
2022-11-10T14:39:54.580Z,0.50
2022-11-10T14:42:27.233Z,0.68
2022-11-10T14:45:15.790Z,0.50
2022-11-10T14:47:44.262Z,0.50
2022-11-10T14:50:24.996Z,0.50
2022-11-10T14:52:57.613Z,0.77
2022-11-10T14:55:30.190Z,0.57
2022-11-10T14:58:05.549Z,0.35
2022-11-10T15:00:37.199Z,0.40
2022-11-10T15:03:07.816Z,0.40
2022-11-10T15:05:36.822Z,0.50
2022-11-10T15:08:06.315Z,0.30
2022-11-10T15:10:46.898Z,0.63
2022-11-10T15:13:36.185Z,0.55
2022-11-10T15:16:25.481Z,0.40
2022-11-10T15:18:55.101Z,0.40
2022-11-10T15:21:29.075Z,0.70
2022-11-10T15:24:02.185Z,0.63
2022-11-10T15:26:35.255Z,1.30
2022-11-10T15:29:05.070Z,0.47
2022-11-10T15:31:36.713Z,0.85
2022-11-10T15:34:06.474Z,0.68
2022-11-10T15:36:39.734Z,0.65
2022-11-10T15:39:20.232Z,0.70
2022-11-10T15:41:49.919Z,0.80
2022-11-10T15:44:22.041Z,0.65
2022-11-10T15:46:53.944Z,0.60
2022-11-10T15:49:25.306Z,0.57
2022-11-10T15:51:57.371Z,0.70
2022-11-10T15:54:28.697Z,0.73
2022-11-10T15:56:57.079Z,0.60
2022-11-10T15:59:26.756Z,0.30
2022-11-10T16:01:55.272Z,0.50
2022-11-10T16:04:23.508Z,0.65
2022-11-10T16:06:51.836Z,0.63
2022-11-10T16:09:20.383Z,0.98
2022-11-10T16:11:48.699Z,1.42
2022-11-10T16:14:18.968Z,1.30
2022-11-10T16:16:48.681Z,0.80
2022-11-10T16:19:17.106Z,0.60
2022-11-10T16:21:45.682Z,0.50
2022-11-10T16:24:13.970Z,0.90
2022-11-10T16:26:42.353Z,0.85
2022-11-10T16:29:14.383Z,0.60
2022-11-10T16:31:42.850Z,0.60
2022-11-10T16:34:14.867Z,0.50
2022-11-10T16:36:46.237Z,0.80
2022-11-10T16:39:16.060Z,0.55
2022-11-10T16:41:44.530Z,0.40
2022-11-10T16:44:14.203Z,1.83
2022-11-10T16:46:44.326Z,1.15
2022-11-10T16:49:26.040Z,1.13
2022-11-10T16:51:54.443Z,0.70
2022-11-10T16:54:22.822Z,0.70
2022-11-10T16:56:51.163Z,0.55
2022-11-10T16:59:19.488Z,0.50
2022-11-10T17:01:49.027Z,0.60
2022-11-10T17:04:17.417Z,1.13
2022-11-10T17:06:47.201Z,0.60
2022-11-10T17:09:20.222Z,1.00
2022-11-10T17:11:48.451Z,1.20
2022-11-10T17:14:17.942Z,1.48
2022-11-10T17:16:47.355Z,1.20
2022-11-10T17:19:19.927Z,1.27
2022-11-10T17:21:50.847Z,1.00
2022-11-10T17:24:19.301Z,0.75
2022-11-10T17:26:48.533Z,0.60
2022-11-10T17:29:22.018Z,1.00
2022-11-10T17:31:51.337Z,0.95
2022-11-10T17:34:19.735Z,0.70
2022-11-10T17:36:50.925Z,0.85
2022-11-10T17:39:19.580Z,0.90
2022-11-10T17:41:47.791Z,0.93
2022-11-10T17:44:17.315Z,1.00
2022-11-10T17:46:45.635Z,0.90
2022-11-10T17:49:13.949Z,1.50
2022-11-10T17:51:42.482Z,1.05
2022-11-10T17:54:15.712Z,1.20
2022-11-10T17:56:44.137Z,1.40
2022-11-10T17:59:12.620Z,1.20
2022-11-10T18:01:41.078Z,1.38
2022-11-10T18:04:13.696Z,1.30
2022-11-10T18:06:42.081Z,1.45
2022-11-10T18:09:10.386Z,1.60
2022-11-10T18:11:40.053Z,1.35
2022-11-10T18:14:09.066Z,1.88
2022-11-10T18:16:37.307Z,1.38
2022-11-10T18:19:06.849Z,2.15
2022-11-10T18:21:35.259Z,1.63
2022-11-10T18:24:03.695Z,1.70
2022-11-10T18:26:32.099Z,2.13
2022-11-10T18:29:01.642Z,1.10
2022-11-10T18:31:29.959Z,1.35
2022-11-10T18:33:58.241Z,1.25
2022-11-10T18:36:26.685Z,1.58
2022-11-10T18:38:54.980Z,1.60
2022-11-10T18:41:40.996Z,3.20
2022-11-10T18:44:10.651Z,2.00
2022-11-10T18:46:38.907Z,1.92
2022-11-10T18:49:07.274Z,2.28
2022-11-10T18:51:35.508Z,2.17
2022-11-10T18:54:04.144Z,2.60
2022-11-10T18:56:32.438Z,1.83
2022-11-10T18:59:00.785Z,2.17
2022-11-10T19:01:30.559Z,1.65
2022-11-10T19:03:59.508Z,2.30
2022-11-10T19:06:27.957Z,2.10
2022-11-10T19:08:57.330Z,2.20
2022-11-10T19:11:26.811Z,2.70
2022-11-10T19:13:55.122Z,1.92
2022-11-10T19:16:23.479Z,2.17
2022-11-10T19:18:53.212Z,2.50
2022-11-10T19:21:23.674Z,2.10
2022-11-10T19:23:55.911Z,1.73
2022-11-10T19:26:25.604Z,2.33
2022-11-10T19:28:55.603Z,2.60
2022-11-10T19:31:25.222Z,2.35
2022-11-10T19:33:57.066Z,1.65
2022-11-10T19:36:27.060Z,2.60
2022-11-10T19:38:56.273Z,3.13
2022-11-10T19:41:26.078Z,2.75
2022-11-10T19:43:54.933Z,3.25
2022-11-10T19:46:25.298Z,3.10
2022-11-10T19:48:58.172Z,3.25
2022-11-10T19:51:26.863Z,5.63
2022-11-10T19:54:01.357Z,3.33
2022-11-10T19:56:32.154Z,3.85
2022-11-10T19:59:00.802Z,3.42
2022-11-10T20:01:29.424Z,4.20
2022-11-10T20:04:00.953Z,4.32
2022-11-10T20:06:29.190Z,4.28
2022-11-10T20:08:57.501Z,3.85
2022-11-10T20:11:27.566Z,4.13
2022-11-10T20:13:57.645Z,5.20
2022-11-10T20:16:26.098Z,5.03
2022-11-10T20:18:54.414Z,5.10
2022-11-10T20:21:24.174Z,4.28
2022-11-10T20:23:56.336Z,5.72
2022-11-10T20:26:26.091Z,4.70
2022-11-10T20:28:54.464Z,5.22
2022-11-10T20:31:26.005Z,4.93
2022-11-10T20:33:55.787Z,5.72
2022-11-10T20:36:27.724Z,6.10
2022-11-10T20:38:59.244Z,5.75
2022-11-10T20:41:29.696Z,5.88
2022-11-10T20:43:58.266Z,6.40
2022-11-10T20:46:48.069Z,6.78
2022-11-10T20:49:15.021Z,6.00
2022-11-10T20:51:44.633Z,3.80
2022-11-10T20:54:15.116Z,6.22
2022-11-10T20:56:43.402Z,6.75
2022-11-10T20:59:12.135Z,8.10
2022-11-10T21:01:40.528Z,7.30
2022-11-10T21:04:08.941Z,9.20
2022-11-10T21:06:37.419Z,8.30
2022-11-10T21:09:07.839Z,9.50
2022-11-10T21:11:53.778Z,9.73
2022-11-10T21:14:22.066Z,10.15
2022-11-10T21:16:50.435Z,10.52
2022-11-10T21:19:21.072Z,9.93
2022-11-10T21:21:51.037Z,11.90
2022-11-10T21:24:20.743Z,11.07
2022-11-10T21:26:50.106Z,12.05
2022-11-10T21:29:18.358Z,12.85
2022-11-10T21:31:46.634Z,13.90
2022-11-10T21:34:14.872Z,13.50
2022-11-10T21:36:43.181Z,14.23
2022-11-10T21:39:11.475Z,14.25
2022-11-10T21:41:41.125Z,16.08
2022-11-10T21:44:09.462Z,18.48
2022-11-10T21:46:37.782Z,19.27
2022-11-10T21:49:07.876Z,20.55
2022-11-10T21:51:36.524Z,20.33
2022-11-10T21:54:04.836Z,22.83
2022-11-10T21:56:33.203Z,21.52
2022-11-10T21:59:02.946Z,20.45
2022-11-10T22:01:31.259Z,23.00
2022-11-10T22:03:59.543Z,24.40
2022-11-10T22:06:44.718Z,22.55
2022-11-10T22:09:12.978Z,26.08
2022-11-10T22:12:01.821Z,23.95
2022-11-10T22:14:49.107Z,21.23
2022-11-10T22:17:34.915Z,21.33
2022-11-10T22:20:03.221Z,24.58
2022-11-10T22:22:31.689Z,23.63
2022-11-10T22:24:59.934Z,22.77
2022-11-10T22:27:30.432Z,23.42
2022-11-10T22:30:00.077Z,24.50
2022-11-10T22:32:28.294Z,21.48
2022-11-10T22:34:56.648Z,22.67
2022-11-10T22:37:24.897Z,22.33
2022-11-10T22:40:13.126Z,22.77
2022-11-10T22:42:58.945Z,22.95
2022-11-10T22:45:28.639Z,22.73
2022-11-10T22:48:13.909Z,22.23
2022-11-10T22:50:42.558Z,22.48
2022-11-10T22:53:13.076Z,23.05
2022-11-10T22:55:41.304Z,21.77
2022-11-10T22:58:09.578Z,21.55
2022-11-10T23:00:39.231Z,23.15
2022-11-10T23:03:07.527Z,21.98
2022-11-10T23:05:35.792Z,21.60
2022-11-10T23:08:04.175Z,21.40
2022-11-10T23:10:32.462Z,23.60
2022-11-10T23:13:00.684Z,24.08
2022-11-10T23:15:29.234Z,21.65
2022-11-10T23:18:02.440Z,22.02
2022-11-10T23:20:36.817Z,22.42
2022-11-10T23:23:05.055Z,19.75
2022-11-10T23:25:36.636Z,20.52
2022-11-10T23:28:07.422Z,16.50
2022-11-10T23:30:35.760Z,17.30
2022-11-10T23:33:05.405Z,18.42
2022-11-10T23:35:36.310Z,16.25
2022-11-10T23:38:04.752Z,18.08
2022-11-10T23:40:35.625Z,14.93
2022-11-10T23:43:04.013Z,17.80
2022-11-10T23:46:00.098Z,15.18
2022-11-10T23:48:22.812Z,17.50
2022-11-10T23:50:54.570Z,13.30
2022-11-10T23:53:25.751Z,16.67
2022-11-10T23:56:01.256Z,16.98
2022-11-10T23:58:30.046Z,16.02
